createdAt,value
2022-11-20T00:00:08.326Z,83.75
2022-11-20T00:02:41.521Z,84.41
2022-11-20T00:05:13.093Z,88.61
2022-11-20T00:07:43.543Z,85.92
2022-11-20T00:10:14.235Z,88.71
2022-11-20T00:12:44.696Z,87.09
2022-11-20T00:15:15.302Z,83.78
2022-11-20T00:17:48.399Z,83.69
2022-11-20T00:20:19.228Z,85.63
2022-11-20T00:22:49.764Z,88.16
2022-11-20T00:25:20.810Z,87.64
2022-11-20T00:27:51.313Z,89.42
2022-11-20T00:30:22.557Z,88.54
2022-11-20T00:32:55.739Z,90.12
2022-11-20T00:35:26.560Z,88.67
2022-11-20T00:37:57.051Z,89.98
2022-11-20T00:40:27.598Z,90.07
2022-11-20T00:42:58.102Z,89.71
2022-11-20T00:45:28.654Z,88.90
2022-11-20T00:48:01.774Z,88.44
2022-11-20T00:50:32.368Z,87.73
2022-11-20T00:53:02.821Z,87.21
2022-11-20T00:55:33.377Z,86.75
2022-11-20T00:58:04.771Z,86.31
2022-11-20T01:00:35.517Z,85.84
2022-11-20T01:03:08.599Z,85.01
2022-11-20T01:05:39.548Z,84.76
2022-11-20T01:08:10.010Z,84.47
2022-11-20T01:10:41.295Z,84.02
2022-11-20T01:13:25.738Z,83.60
2022-11-20T01:15:56.602Z,83.23
2022-11-20T01:18:29.682Z,82.66
2022-11-20T01:21:03.756Z,82.93
2022-11-20T01:23:38.844Z,82.40
2022-11-20T01:26:13.034Z,81.99
2022-11-20T01:28:44.276Z,82.12
2022-11-20T01:31:17.153Z,81.40
2022-11-20T01:33:52.593Z,81.60
2022-11-20T01:36:25.112Z,81.35
2022-11-20T01:38:56.435Z,81.67
2022-11-20T01:41:40.349Z,81.05
2022-11-20T01:44:11.228Z,80.68
2022-11-20T01:46:46.649Z,80.59
2022-11-20T01:49:24.265Z,80.60
2022-11-20T01:51:58.096Z,80.60
2022-11-20T01:54:33.783Z,80.48
2022-11-20T01:57:05.920Z,80.48
2022-11-20T01:59:37.570Z,80.30
2022-11-20T02:02:08.292Z,80.34
2022-11-20T02:04:41.759Z,80.23
2022-11-20T02:07:12.865Z,80.41
2022-11-20T02:09:43.353Z,80.16
2022-11-20T02:12:34.491Z,80.10
2022-11-20T02:15:26.190Z,80.30
2022-11-20T02:17:59.746Z,79.84
2022-11-20T02:20:33.279Z,80.01
2022-11-20T02:23:08.821Z,80.20
2022-11-20T02:25:44.031Z,80.14
2022-11-20T02:28:14.745Z,80.22
2022-11-20T02:30:45.166Z,79.75
2022-11-20T02:33:16.402Z,79.88
2022-11-20T02:35:49.656Z,79.96
2022-11-20T02:38:20.729Z,80.10
2022-11-20T02:40:55.706Z,80.37
2022-11-20T02:43:27.072Z,80.17
2022-11-20T02:45:57.840Z,80.13
2022-11-20T02:48:33.560Z,80.16
2022-11-20T02:51:04.809Z,80.39
2022-11-20T02:53:35.434Z,80.28
2022-11-20T02:56:09.585Z,80.17
2022-11-20T02:58:40.114Z,80.37
2022-11-20T03:01:10.820Z,80.28
2022-11-20T03:03:41.453Z,80.32
2022-11-20T03:06:12.220Z,80.36
2022-11-20T03:08:42.860Z,80.32
2022-11-20T03:11:16.060Z,79.83
2022-11-20T03:13:47.005Z,79.99
2022-11-20T03:16:20.147Z,79.71
2022-11-20T03:18:50.896Z,79.84
2022-11-20T03:21:21.488Z,79.52
2022-11-20T03:23:51.983Z,79.38
2022-11-20T03:26:28.311Z,78.95
2022-11-20T03:29:00.837Z,79.04
2022-11-20T03:31:33.339Z,79.07
2022-11-20T03:34:04.499Z,78.69
2022-11-20T03:36:36.146Z,78.34
2022-11-20T03:39:06.924Z,78.45
2022-11-20T03:41:44.797Z,78.44
2022-11-20T03:44:16.266Z,78.10
2022-11-20T03:46:46.887Z,78.42
2022-11-20T03:49:17.415Z,78.03
2022-11-20T03:51:48.619Z,78.37
2022-11-20T03:54:19.218Z,78.18
2022-11-20T03:56:52.368Z,78.20
2022-11-20T03:59:23.203Z,77.98
2022-11-20T04:01:53.994Z,77.99
2022-11-20T04:04:24.580Z,77.77
2022-11-20T04:06:55.126Z,77.96
2022-11-20T04:09:25.704Z,78.01
2022-11-20T04:11:58.857Z,77.79
2022-11-20T04:14:29.602Z,77.83
2022-11-20T04:17:00.185Z,77.71
2022-11-20T04:19:30.699Z,77.69
2022-11-20T04:22:01.198Z,77.98
2022-11-20T04:24:31.754Z,78.03
2022-11-20T04:27:04.906Z,77.94
2022-11-20T04:29:35.485Z,77.94
2022-11-20T04:32:06.182Z,78.07
2022-11-20T04:34:36.801Z,77.87
2022-11-20T04:37:07.459Z,78.09
2022-11-20T04:39:38.117Z,78.38
2022-11-20T04:42:25.871Z,78.26
2022-11-20T04:44:56.319Z,78.39
2022-11-20T04:47:27.643Z,78.49
2022-11-20T04:49:58.264Z,78.60
2022-11-20T04:52:28.999Z,78.94
2022-11-20T04:54:59.614Z,78.68
2022-11-20T04:57:32.717Z,78.26
2022-11-20T05:00:03.206Z,77.86
2022-11-20T05:02:35.360Z,77.14
2022-11-20T05:05:05.885Z,77.28
2022-11-20T05:07:36.363Z,77.36
2022-11-20T05:10:07.599Z,76.93
2022-11-20T05:12:40.845Z,76.64
2022-11-20T05:15:12.327Z,76.83
2022-11-20T05:17:42.997Z,76.45
2022-11-20T05:20:15.236Z,76.14
2022-11-20T05:22:46.203Z,76.02
2022-11-20T05:25:16.769Z,76.13
2022-11-20T05:27:49.926Z,75.70
2022-11-20T05:30:20.559Z,75.93
2022-11-20T05:32:51.127Z,75.46
2022-11-20T05:35:21.659Z,75.11
2022-11-20T05:37:52.243Z,75.31
2022-11-20T05:40:22.958Z,75.04
2022-11-20T05:42:56.213Z,75.07
2022-11-20T05:45:26.822Z,74.93
2022-11-20T05:47:57.647Z,74.92
2022-11-20T05:50:28.161Z,74.65
2022-11-20T05:52:58.714Z,74.55
2022-11-20T05:55:29.265Z,74.37
2022-11-20T05:58:02.411Z,74.38
2022-11-20T06:00:32.902Z,74.20
2022-11-20T06:03:03.494Z,74.17
2022-11-20T06:05:34.103Z,73.75
2022-11-20T06:08:05.340Z,73.62
2022-11-20T06:10:35.781Z,73.01
2022-11-20T06:13:08.905Z,73.55
2022-11-20T06:15:39.833Z,73.27
2022-11-20T06:18:10.440Z,73.36
2022-11-20T06:20:42.185Z,73.16
2022-11-20T06:23:12.920Z,73.23
2022-11-20T06:25:43.987Z,72.57
2022-11-20T06:28:17.223Z,72.08
2022-11-20T06:30:49.835Z,72.21
2022-11-20T06:33:20.357Z,72.02
2022-11-20T06:35:53.315Z,71.78
2022-11-20T06:38:27.736Z,71.65
2022-11-20T06:40:58.734Z,71.62
2022-11-20T06:43:33.501Z,70.79
2022-11-20T06:46:04.070Z,70.75
2022-11-20T06:48:35.003Z,70.86
2022-11-20T06:51:07.708Z,70.99
2022-11-20T06:53:38.585Z,70.93
2022-11-20T06:56:10.562Z,70.57
2022-11-20T06:58:44.004Z,69.96
2022-11-20T07:01:16.422Z,70.10
2022-11-20T07:03:51.380Z,69.15
2022-11-20T07:06:24.554Z,67.81
2022-11-20T07:08:55.808Z,67.11
2022-11-20T07:11:26.582Z,64.98
2022-11-20T07:14:01.124Z,62.72
2022-11-20T07:16:31.672Z,63.63
2022-11-20T07:19:02.460Z,63.73
2022-11-20T07:21:32.951Z,63.82
2022-11-20T07:24:03.548Z,63.32
2022-11-20T07:26:33.988Z,63.73
2022-11-20T07:29:07.324Z,63.65
2022-11-20T07:31:37.923Z,63.85
2022-11-20T07:34:08.533Z,64.16
2022-11-20T07:36:39.140Z,64.64
2022-11-20T07:39:09.820Z,64.56
2022-11-20T07:41:40.382Z,64.59
2022-11-20T07:44:13.585Z,65.10
2022-11-20T07:46:44.025Z,64.29
2022-11-20T07:49:14.792Z,61.90
2022-11-20T07:51:46.997Z,61.36
2022-11-20T07:54:21.007Z,61.01
2022-11-20T07:56:51.894Z,60.37
2022-11-20T07:59:25.100Z,57.56
2022-11-20T08:01:55.741Z,57.63
2022-11-20T08:04:26.235Z,56.26
2022-11-20T08:06:57.562Z,56.58
2022-11-20T08:09:28.272Z,55.45
2022-11-20T08:12:11.097Z,55.45
2022-11-20T08:14:44.197Z,54.90
2022-11-20T08:17:14.746Z,55.15
2022-11-20T08:19:45.239Z,55.29
2022-11-20T08:22:15.673Z,55.69
2022-11-20T08:24:46.199Z,55.55
2022-11-20T08:27:16.693Z,55.88
2022-11-20T08:29:49.849Z,56.57
2022-11-20T08:32:20.432Z,56.94
2022-11-20T08:34:51.001Z,57.04
2022-11-20T08:37:21.549Z,57.36
2022-11-20T08:39:52.020Z,57.06
2022-11-20T08:42:22.765Z,57.33
2022-11-20T08:44:55.915Z,56.98
2022-11-20T08:47:26.480Z,57.04
2022-11-20T08:49:56.958Z,57.25
2022-11-20T08:52:27.560Z,57.29
2022-11-20T08:54:58.001Z,57.47
2022-11-20T08:57:28.521Z,58.15
2022-11-20T09:00:06.310Z,58.46
2022-11-20T09:02:37.308Z,58.93
2022-11-20T09:05:08.779Z,58.74
2022-11-20T09:07:39.405Z,58.85
2022-11-20T09:13:02.780Z,59.16
2022-11-20T09:15:36.261Z,59.31
2022-11-20T09:18:07.784Z,59.33
2022-11-20T09:20:38.333Z,59.77
2022-11-20T09:23:08.850Z,59.98
2022-11-20T09:25:39.348Z,60.25
2022-11-20T09:28:09.906Z,58.85
2022-11-20T09:30:43.023Z,58.54
2022-11-20T09:33:13.768Z,61.44
2022-11-20T09:35:44.736Z,65.77
2022-11-20T09:38:15.767Z,69.06
2022-11-20T09:40:54.401Z,71.09
2022-11-20T09:43:37.114Z,73.60
2022-11-20T09:46:24.952Z,76.00
2022-11-20T09:49:13.754Z,76.36
2022-11-20T09:51:55.809Z,76.44
2022-11-20T09:54:30.563Z,76.47
2022-11-20T09:57:04.365Z,76.89
2022-11-20T09:59:42.233Z,76.51
2022-11-20T10:02:32.046Z,76.61
2022-11-20T10:05:08.164Z,76.05
2022-11-20T10:07:47.172Z,76.44
2022-11-20T10:10:26.391Z,75.91
2022-11-20T10:13:09.412Z,75.95
2022-11-20T10:15:50.405Z,75.78
2022-11-20T10:18:35.970Z,75.31
2022-11-20T10:21:17.256Z,74.98
2022-11-20T10:24:11.537Z,74.08
2022-11-20T10:26:52.376Z,75.82
2022-11-20T10:29:28.395Z,73.89
2022-11-20T10:32:03.971Z,72.84
2022-11-20T10:34:41.513Z,71.66
2022-11-20T10:37:19.078Z,70.63
2022-11-20T10:39:58.700Z,70.14
2022-11-20T10:42:36.646Z,69.76
2022-11-20T10:45:35.493Z,69.24
2022-11-20T10:48:17.800Z,68.05
2022-11-20T10:51:26.385Z,67.55
2022-11-20T10:54:09.804Z,67.64
2022-11-20T10:56:49.893Z,67.34
2022-11-20T10:59:45.660Z,66.22
2022-11-20T11:02:24.027Z,66.02
2022-11-20T11:04:55.616Z,65.35
2022-11-20T11:07:34.708Z,65.08
2022-11-20T11:10:05.508Z,64.11
2022-11-20T11:12:36.050Z,63.44
2022-11-20T11:15:07.099Z,63.14
2022-11-20T11:17:38.467Z,63.05
2022-11-20T11:20:20.921Z,60.81
2022-11-20T11:22:56.342Z,61.53
2022-11-20T11:25:30.406Z,61.58
2022-11-20T11:28:03.556Z,62.19
2022-11-20T11:30:45.916Z,61.54
2022-11-20T11:33:23.783Z,61.40
2022-11-20T11:35:58.368Z,61.54
2022-11-20T11:38:40.002Z,61.67
2022-11-20T11:41:14.711Z,61.86
2022-11-20T11:44:08.516Z,61.86
2022-11-20T11:46:40.818Z,62.64
2022-11-20T11:49:21.862Z,62.35
2022-11-20T11:52:03.467Z,62.76
2022-11-20T11:54:42.559Z,62.83
2022-11-20T11:57:18.373Z,63.10
2022-11-20T12:00:01.937Z,62.98
2022-11-20T12:02:42.009Z,63.70
2022-11-20T12:05:23.138Z,63.43
2022-11-20T12:07:59.485Z,63.52
2022-11-20T12:10:45.721Z,63.46
2022-11-20T12:13:30.224Z,63.47
2022-11-20T12:16:01.139Z,63.63
2022-11-20T12:18:33.813Z,64.04
2022-11-20T12:21:17.151Z,64.25
2022-11-20T12:24:02.925Z,63.67
2022-11-20T12:26:44.878Z,63.42
2022-11-20T12:29:28.239Z,63.79
2022-11-20T12:32:22.868Z,64.24
2022-11-20T12:35:11.130Z,63.98
2022-11-20T12:37:53.499Z,64.23
2022-11-20T12:40:36.847Z,64.45
2022-11-20T12:43:38.679Z,64.71
2022-11-20T12:46:22.724Z,64.85
2022-11-20T12:49:24.510Z,65.37
2022-11-20T12:52:27.734Z,65.67
2022-11-20T12:55:28.199Z,66.49
2022-11-20T12:58:05.667Z,66.35
2022-11-20T13:00:45.752Z,66.51
2022-11-20T13:03:52.154Z,67.18
2022-11-20T13:06:22.991Z,67.87
2022-11-20T13:08:57.718Z,67.91
2022-11-20T13:11:36.514Z,67.77
2022-11-20T13:14:17.769Z,67.94
2022-11-20T13:17:00.907Z,68.32
2022-11-20T13:19:36.087Z,68.85
2022-11-20T13:22:06.567Z,69.05
2022-11-20T13:24:37.158Z,69.14
2022-11-20T13:27:25.389Z,69.21
2022-11-20T13:30:18.472Z,69.64
2022-11-20T13:33:01.180Z,69.88
2022-11-20T13:35:34.803Z,70.42
2022-11-20T13:38:11.237Z,68.23
2022-11-20T13:40:54.559Z,66.79
2022-11-20T13:43:37.834Z,68.90
2022-11-20T13:46:10.831Z,73.27
2022-11-20T13:48:47.616Z,77.05
2022-11-20T13:51:33.267Z,79.87
2022-11-20T13:54:40.056Z,82.03
2022-11-20T13:57:27.588Z,84.42
2022-11-20T14:00:02.631Z,85.47
2022-11-20T14:02:41.598Z,87.61
2022-11-20T14:05:24.209Z,89.31
2022-11-20T14:07:56.671Z,91.52
2022-11-20T14:10:32.128Z,91.21
2022-11-20T14:13:13.911Z,91.04
2022-11-20T14:15:45.205Z,89.86
2022-11-20T14:18:18.240Z,87.31
2022-11-20T14:20:51.571Z,88.30
2022-11-20T14:23:30.299Z,90.62
2022-11-20T14:26:01.532Z,91.91
2022-11-20T14:28:33.790Z,92.52
2022-11-20T14:31:04.522Z,93.23
2022-11-20T14:33:37.316Z,93.92
2022-11-20T14:36:20.609Z,93.39
2022-11-20T14:38:51.536Z,94.46
2022-11-20T14:41:24.381Z,94.12
2022-11-20T14:44:00.627Z,94.75
2022-11-20T14:46:34.136Z,94.39
2022-11-20T14:49:07.112Z,94.30
2022-11-20T14:51:42.949Z,94.23
2022-11-20T14:54:14.885Z,94.87
2022-11-20T14:56:45.704Z,95.51
2022-11-20T14:59:28.256Z,95.35
2022-11-20T15:02:01.061Z,95.20
2022-11-20T15:04:31.797Z,95.60
2022-11-20T15:07:04.963Z,96.16
2022-11-20T15:09:35.682Z,100.00
2022-11-20T15:12:07.662Z,100.00
2022-11-20T15:14:40.780Z,100.00
2022-11-20T15:17:15.728Z,100.00
2022-11-20T15:19:46.390Z,99.48
2022-11-20T15:22:20.271Z,98.66
2022-11-20T15:24:50.962Z,97.85
2022-11-20T15:27:22.016Z,97.15
2022-11-20T15:29:52.905Z,96.32
2022-11-20T15:32:23.654Z,95.57
2022-11-20T15:34:54.268Z,94.85
2022-11-20T15:37:30.080Z,93.76
2022-11-20T15:40:01.019Z,93.63
2022-11-20T15:42:31.458Z,92.75
2022-11-20T15:45:09.784Z,92.03
2022-11-20T15:47:40.558Z,91.62
2022-11-20T15:50:18.100Z,91.29
2022-11-20T15:52:51.948Z,85.27
2022-11-20T15:55:22.740Z,82.00
2022-11-20T15:57:56.243Z,85.16
2022-11-20T16:00:27.199Z,88.22
2022-11-20T16:02:57.764Z,89.64
2022-11-20T16:05:31.651Z,93.04
2022-11-20T16:08:09.998Z,95.93
2022-11-20T16:10:43.119Z,96.61
2022-11-20T16:13:30.844Z,100.00
2022-11-20T16:16:06.207Z,100.00
2022-11-20T16:18:37.241Z,100.00
2022-11-20T16:21:08.063Z,100.00
2022-11-20T16:23:41.199Z,100.00
2022-11-20T16:26:15.544Z,99.92
2022-11-20T16:28:46.150Z,99.46
2022-11-20T16:31:18.603Z,98.71
2022-11-20T16:33:53.948Z,98.33
2022-11-20T16:36:24.867Z,97.94
2022-11-20T16:39:00.618Z,97.13
2022-11-20T16:41:32.526Z,96.65
2022-11-20T16:44:04.977Z,95.93
2022-11-20T16:46:36.505Z,95.41
2022-11-20T16:49:09.448Z,94.67
2022-11-20T16:51:40.521Z,94.34
2022-11-20T16:54:18.063Z,93.65
2022-11-20T16:56:52.145Z,93.24
2022-11-20T16:59:22.677Z,92.89
2022-11-20T17:01:53.394Z,92.86
2022-11-20T17:04:24.141Z,92.38
2022-11-20T17:06:55.066Z,91.90
2022-11-20T17:09:28.283Z,91.58
2022-11-20T17:11:58.978Z,91.44
2022-11-20T17:14:29.703Z,91.20
2022-11-20T17:17:00.560Z,90.95
2022-11-20T17:19:31.220Z,90.71
2022-11-20T17:22:02.119Z,90.84
2022-11-20T17:24:35.424Z,90.72
2022-11-20T17:27:06.706Z,90.64
2022-11-20T17:29:41.932Z,90.25
2022-11-20T17:32:12.762Z,90.16
2022-11-20T17:34:44.299Z,90.20
2022-11-20T17:37:15.365Z,89.86
2022-11-20T17:39:49.363Z,90.03
2022-11-20T17:42:37.086Z,89.54
2022-11-20T17:45:08.620Z,89.51
2022-11-20T17:47:39.705Z,89.67
2022-11-20T17:50:11.764Z,85.74
2022-11-20T17:52:42.641Z,81.39
2022-11-20T17:55:16.063Z,79.68
2022-11-20T17:57:58.444Z,84.49
2022-11-20T18:00:30.884Z,88.24
2022-11-20T18:03:01.432Z,89.49
2022-11-20T18:05:32.235Z,91.88
2022-11-20T18:08:02.713Z,92.45
2022-11-20T18:10:36.151Z,100.00
2022-11-20T18:13:06.838Z,100.00
2022-11-20T18:15:37.631Z,100.00
2022-11-20T18:18:08.368Z,99.91
2022-11-20T18:20:40.098Z,99.69
2022-11-20T18:23:10.825Z,99.53
2022-11-20T18:25:44.817Z,99.08
2022-11-20T18:28:15.287Z,98.36
2022-11-20T18:30:46.208Z,97.85
2022-11-20T18:33:17.436Z,97.16
2022-11-20T18:35:48.179Z,96.73
2022-11-20T18:38:18.873Z,96.39
2022-11-20T18:40:52.090Z,95.76
2022-11-20T18:43:35.015Z,95.05
2022-11-20T18:46:06.666Z,94.42
2022-11-20T18:48:38.851Z,94.15
2022-11-20T18:51:12.199Z,93.57
2022-11-20T18:53:47.117Z,93.27
2022-11-20T18:56:21.417Z,92.93
2022-11-20T18:58:52.075Z,92.72
2022-11-20T19:01:22.739Z,92.45
2022-11-20T19:03:53.643Z,92.28
2022-11-20T19:06:24.286Z,91.83
2022-11-20T19:08:55.453Z,91.36
2022-11-20T19:11:28.657Z,91.30
2022-11-20T19:13:59.181Z,90.87
2022-11-20T19:16:29.813Z,90.78
2022-11-20T19:19:03.571Z,91.13
2022-11-20T19:21:34.406Z,90.98
2022-11-20T19:24:07.031Z,90.56
2022-11-20T19:26:41.349Z,90.45
2022-11-20T19:29:15.629Z,90.57
2022-11-20T19:31:46.733Z,90.30
2022-11-20T19:34:18.264Z,90.20
2022-11-20T19:36:48.743Z,89.99
2022-11-20T19:39:19.905Z,90.09
2022-11-20T19:41:53.498Z,89.86
2022-11-20T19:44:23.994Z,89.82
2022-11-20T19:46:57.269Z,89.47
2022-11-20T19:49:29.022Z,89.59
2022-11-20T19:51:59.805Z,89.69
2022-11-20T19:54:30.567Z,89.45
2022-11-20T19:57:03.851Z,89.35
2022-11-20T19:59:34.301Z,89.24
2022-11-20T20:02:05.293Z,89.17
2022-11-20T20:04:35.893Z,89.29
2022-11-20T20:07:06.835Z,89.09
2022-11-20T20:09:37.459Z,89.23
2022-11-20T20:12:11.244Z,89.08
2022-11-20T20:14:41.776Z,88.41
2022-11-20T20:17:12.334Z,88.30
2022-11-20T20:19:43.244Z,88.44
2022-11-20T20:22:13.733Z,88.70
2022-11-20T20:24:44.408Z,88.97
2022-11-20T20:27:17.770Z,88.86
2022-11-20T20:29:48.316Z,88.85
2022-11-20T20:32:18.904Z,88.96
2022-11-20T20:34:49.541Z,88.83
2022-11-20T20:37:20.111Z,88.78
2022-11-20T20:39:50.895Z,88.38
2022-11-20T20:42:24.082Z,89.02
2022-11-20T20:45:06.843Z,88.71
2022-11-20T20:47:38.632Z,88.61
2022-11-20T20:50:11.818Z,88.58
2022-11-20T20:52:42.671Z,88.51
2022-11-20T20:55:13.921Z,88.57
2022-11-20T20:57:47.398Z,88.68
2022-11-20T21:00:19.250Z,88.54
2022-11-20T21:02:49.769Z,88.75
2022-11-20T21:05:20.430Z,88.61
2022-11-20T21:08:03.245Z,88.85
2022-11-20T21:10:34.929Z,89.20
2022-11-20T21:13:08.198Z,89.51
2022-11-20T21:15:41.867Z,89.67
2022-11-20T21:18:12.286Z,89.78
2022-11-20T21:20:55.113Z,89.61
2022-11-20T21:23:25.693Z,89.58
2022-11-20T21:25:56.415Z,89.35
2022-11-20T21:28:29.513Z,89.64
2022-11-20T21:31:07.396Z,84.38
2022-11-20T21:33:42.082Z,80.34
2022-11-20T21:36:14.523Z,82.53
2022-11-20T21:38:45.107Z,85.14
2022-11-20T21:41:17.362Z,87.72
2022-11-20T21:44:15.983Z,91.95
2022-11-20T21:46:42.663Z,94.25
2022-11-20T21:49:14.801Z,94.19
2022-11-20T21:51:45.774Z,95.15
2022-11-20T21:54:17.731Z,95.86
2022-11-20T21:56:48.331Z,98.23
2022-11-20T21:59:22.357Z,100.00
2022-11-20T22:01:53.337Z,100.00
2022-11-20T22:04:24.757Z,100.00
2022-11-20T22:06:55.413Z,100.00
2022-11-20T22:09:26.301Z,99.93
2022-11-20T22:11:57.111Z,98.76
2022-11-20T22:14:28.536Z,99.68
2022-11-20T22:16:59.202Z,100.00
2022-11-20T22:19:29.819Z,98.77
2022-11-20T22:22:00.344Z,99.07
2022-11-20T22:24:30.958Z,100.00
2022-11-20T22:27:01.512Z,100.00
2022-11-20T22:29:35.041Z,100.00
2022-11-20T22:32:05.629Z,100.00
2022-11-20T22:34:36.355Z,100.00
2022-11-20T22:37:06.882Z,100.00
2022-11-20T22:39:37.355Z,100.00
2022-11-20T22:42:08.052Z,100.00
2022-11-20T22:44:41.294Z,100.00
2022-11-20T22:47:11.875Z,100.00
2022-11-20T22:49:42.356Z,100.00
2022-11-20T22:52:12.860Z,100.00
2022-11-20T22:54:43.460Z,100.00
2022-11-20T22:57:13.975Z,100.00
2022-11-20T22:59:47.164Z,100.00
2022-11-20T23:02:17.664Z,100.00
2022-11-20T23:04:48.037Z,100.00
2022-11-20T23:07:18.604Z,100.00
2022-11-20T23:09:49.149Z,100.00
2022-11-20T23:12:19.646Z,100.00
2022-11-20T23:14:52.675Z,100.00
2022-11-20T23:17:23.169Z,100.00
2022-11-20T23:19:53.733Z,100.00
2022-11-20T23:22:24.164Z,100.00
2022-11-20T23:24:54.737Z,100.00
2022-11-20T23:27:28.340Z,100.00
2022-11-20T23:30:01.652Z,100.00
2022-11-20T23:32:34.541Z,100.00
2022-11-20T23:35:05.034Z,100.00
2022-11-20T23:37:35.402Z,100.00
2022-11-20T23:40:06.156Z,100.00
2022-11-20T23:42:37.166Z,100.00
2022-11-20T23:45:11.540Z,100.00
2022-11-20T23:47:41.988Z,100.00
2022-11-20T23:50:12.690Z,100.00
2022-11-20T23:52:43.199Z,100.00
2022-11-20T23:55:13.672Z,100.00
2022-11-20T23:57:44.113Z,100.00
